Time;durP1;ratioP1;P1;durP2;ratioP2;P2;SDS_P1;SDS_P2;PMS_P1;PMS_P2;Temp;Humidity;BMP_temperature;BMP_pressure;BME280_temperature;BME280_humidity;BME280_pressure;Samples;Min_cycle;Max_cycle;Signal;HPM_P1;HPM_P2
2021/08/30 00:01:41;;;;;;;18.67;10.93;;;16.60;93.10;;;;;;5032048;28;20032;-74
2021/08/30 00:04:07;;;;;;;15.90;8.10;;;16.50;93.20;;;;;;5030951;28;20483;-74
2021/08/30 00:06:33;;;;;;;18.77;11.77;;;16.50;92.80;;;;;;5030763;28;20127;-74
2021/08/30 00:08:58;;;;;;;23.73;11.98;;;16.50;92.90;;;;;;5031987;28;20021;-73
2021/08/30 00:11:24;;;;;;;13.13;9.60;;;16.50;93.30;;;;;;5032212;28;20038;-73
2021/08/30 00:13:50;;;;;;;15.63;10.15;;;16.50;93.30;;;;;;5031012;28;20100;-73
2021/08/30 00:16:16;;;;;;;16.30;8.88;;;16.50;93.30;;;;;;5032181;28;20155;-73
2021/08/30 00:18:42;;;;;;;16.10;9.68;;;16.50;93.10;;;;;;5031699;28;20037;-73
2021/08/30 00:21:08;;;;;;;21.33;12.70;;;16.50;93.20;;;;;;5032576;28;20025;-74
2021/08/30 00:23:33;;;;;;;18.40;11.98;;;16.50;93.30;;;;;;5032721;28;20026;-73
2021/08/30 00:26:01;;;;;;;17.75;10.40;;;16.50;93.40;;;;;;5035289;28;20025;-73
2021/08/30 00:28:27;;;;;;;16.52;10.85;;;16.40;93.30;;;;;;5033778;28;20541;-73
2021/08/30 00:30:53;;;;;;;13.10;8.50;;;16.40;93.40;;;;;;5032223;28;20112;-73
2021/08/30 00:33:18;;;;;;;16.90;10.90;;;16.40;93.20;;;;;;5032434;28;20025;-73
2021/08/30 00:35:44;;;;;;;17.90;9.45;;;16.40;92.90;;;;;;5032133;28;20151;-73
2021/08/30 00:38:09;;;;;;;17.05;10.35;;;16.40;93.00;;;;;;5030451;28;20029;-73
2021/08/30 00:40:37;;;;;;;18.90;10.55;;;16.40;93.20;;;;;;5030531;28;20025;-73
2021/08/30 00:43:03;;;;;;;17.08;11.05;;;16.30;93.30;;;;;;5032180;28;20029;-73
2021/08/30 00:45:29;;;;;;;18.15;11.63;;;16.30;93.40;;;;;;5031806;28;20092;-73
2021/08/30 00:47:55;;;;;;;17.73;11.45;;;16.30;93.50;;;;;;5030829;28;20480;-73
2021/08/30 00:50:21;;;;;;;15.23;10.13;;;16.30;93.60;;;;;;5035112;28;20033;-73
2021/08/30 00:52:47;;;;;;;27.25;13.35;;;16.30;93.60;;;;;;5037525;28;20028;-73
2021/08/30 00:55:13;;;;;;;14.90;10.38;;;16.30;93.60;;;;;;5044720;28;20033;-73
2021/08/30 00:57:39;;;;;;;15.90;9.90;;;16.30;93.70;;;;;;5037773;28;20454;-73
2021/08/30 01:00:06;;;;;;;15.63;11.20;;;16.40;93.80;;;;;;5040393;28;20026;-72
2021/08/30 01:02:33;;;;;;;18.88;9.95;;;16.40;93.70;;;;;;5035459;28;20053;-73
2021/08/30 01:04:59;;;;;;;15.60;10.70;;;16.40;93.80;;;;;;5035398;28;20458;-73
2021/08/30 01:07:46;;;;;;;16.55;10.35;;;16.40;93.80;;;;;;5035220;28;20044;-71
2021/08/30 01:10:18;;;;;;;20.33;10.77;;;16.50;93.80;;;;;;5035263;28;20049;-72
2021/08/30 01:13:00;;;;;;;13.32;9.30;;;16.50;93.80;;;;;;5035460;28;20025;-73
2021/08/30 01:15:32;;;;;;;19.60;11.80;;;16.50;93.70;;;;;;5034653;28;20021;-73
2021/08/30 01:18:01;;;;;;;13.80;8.98;;;16.50;93.70;;;;;;5040734;28;20051;-73
2021/08/30 01:20:50;;;;;;;16.92;10.30;;;16.50;93.70;;;;;;5035123;28;20049;-73
2021/08/30 01:23:17;;;;;;;17.45;10.77;;;16.50;93.60;;;;;;5035202;28;20105;-73
2021/08/30 01:25:42;;;;;;;20.02;11.15;;;16.50;93.70;;;;;;5034658;28;20105;-73
2021/08/30 01:28:09;;;;;;;22.67;12.80;;;16.60;93.70;;;;;;5033340;28;20110;-73
2021/08/30 01:30:37;;;;;;;13.82;10.05;;;16.60;93.70;;;;;;5034562;28;20130;-74
2021/08/30 01:33:04;;;;;;;21.80;9.75;;;16.60;93.60;;;;;;5033647;28;20057;-73
2021/08/30 01:35:31;;;;;;;20.75;10.00;;;16.60;93.50;;;;;;5034683;28;20106;-73
2021/08/30 01:38:00;;;;;;;17.98;11.40;;;16.60;93.50;;;;;;5034871;28;20017;-73
2021/08/30 01:40:28;;;;;;;18.83;9.23;;;16.60;93.50;;;;;;5035173;28;20462;-73
2021/08/30 01:42:57;;;;;;;20.55;10.82;;;16.60;93.40;;;;;;5034721;28;20091;-73
2021/08/30 01:45:25;;;;;;;16.55;10.75;;;16.60;93.30;;;;;;5034458;28;20025;-73
2021/08/30 01:47:54;;;;;;;13.63;8.82;;;16.60;93.40;;;;;;5034242;28;20018;-73
2021/08/30 01:50:22;;;;;;;18.47;9.63;;;16.70;93.10;;;;;;5033402;28;20025;-73
2021/08/30 01:52:50;;;;;;;13.90;9.40;;;16.70;93.10;;;;;;5034478;28;20271;-73
2021/08/30 01:55:32;;;;;;;14.70;9.90;;;16.70;93.20;;;;;;5033231;28;20026;-73
2021/08/30 02:00:44;;;;;;;20.40;10.13;;;16.70;92.60;;;;;;5033613;28;20488;-73
2021/08/30 02:03:24;;;;;;;19.40;10.55;;;16.70;92.90;;;;;;5034551;28;20022;-73
2021/08/30 02:05:55;;;;;;;12.85;9.00;;;16.70;93.00;;;;;;5034236;28;20021;-73
2021/08/30 02:08:23;;;;;;;13.05;8.88;;;16.70;93.00;;;;;;5036379;28;20029;-73
2021/08/30 02:10:57;;;;;;;15.02;9.70;;;16.70;93.00;;;;;;5047559;28;20081;-73
2021/08/30 02:13:28;;;;;;;17.02;10.45;;;16.70;92.90;;;;;;5062594;28;20037;-73
2021/08/30 02:15:56;;;;;;;11.98;6.47;;;16.70;92.60;;;;;;5053869;28;20082;-72
2021/08/30 02:18:50;;;;;;;16.90;10.63;;;16.70;91.80;;;;;;5053979;28;20021;-73
2021/08/30 02:21:21;;;;;;;10.00;6.80;;;16.70;92.60;;;;;;5054163;28;20032;-73
2021/08/30 02:24:01;;;;;;;19.20;10.60;;;16.70;91.50;;;;;;5053727;28;20025;-73
2021/08/30 02:26:42;;;;;;;13.23;9.07;;;16.70;91.90;;;;;;5053585;28;20033;-74
2021/08/30 02:29:10;;;;;;;17.30;9.55;;;16.70;92.20;;;;;;5053781;28;20492;-73
2021/08/30 02:31:38;;;;;;;15.23;9.80;;;16.70;92.40;;;;;;5053586;28;20104;-73
2021/08/30 02:34:08;;;;;;;15.30;9.65;;;16.70;92.50;;;;;;5053807;28;20520;-74
2021/08/30 02:36:34;;;;;;;11.90;7.97;;;16.70;92.40;;;;;;5052097;28;20036;-74
2021/08/30 02:39:01;;;;;;;17.65;10.90;;;16.70;92.10;;;;;;5053738;28;20024;-74
2021/08/30 02:41:28;;;;;;;16.63;10.90;;;16.70;92.50;;;;;;5053348;28;20024;-74
2021/08/30 02:43:56;;;;;;;15.10;9.23;;;16.70;92.70;;;;;;5053289;28;20056;-73
2021/08/30 02:46:21;;;;;;;14.68;9.38;;;16.70;92.60;;;;;;5053767;28;20119;-73
2021/08/30 02:48:48;;;;;;;12.60;7.57;;;16.70;92.60;;;;;;5060780;28;20060;-72
2021/08/30 02:51:14;;;;;;;16.52;10.95;;;16.70;92.20;;;;;;5055381;28;20107;-73
2021/08/30 02:53:41;;;;;;;18.73;11.15;;;16.70;92.50;;;;;;5062119;28;20025;-73
2021/08/30 02:56:07;;;;;;;16.60;11.68;;;16.70;92.00;;;;;;5053412;28;20035;-73
2021/08/30 02:58:33;;;;;;;14.70;10.35;;;16.70;92.50;;;;;;5053359;28;20025;-74
2021/08/30 03:01:01;;;;;;;15.95;10.05;;;16.70;92.70;;;;;;5053052;28;20112;-74
2021/08/30 03:03:26;;;;;;;15.63;10.35;;;16.70;92.70;;;;;;5053479;28;20343;-73
2021/08/30 03:05:53;;;;;;;20.27;13.13;;;16.70;92.80;;;;;;5053786;28;20017;-74
2021/08/30 03:08:20;;;;;;;21.02;12.10;;;16.70;92.70;;;;;;5057282;28;20466;-73
2021/08/30 03:10:46;;;;;;;22.33;13.20;;;16.70;92.80;;;;;;5054008;28;20040;-73
2021/08/30 03:13:13;;;;;;;16.98;10.45;;;16.70;92.90;;;;;;5051518;28;20036;-73
2021/08/30 03:15:43;;;;;;;19.45;11.80;;;16.60;92.30;;;;;;5052778;28;20049;-72
2021/08/30 03:18:12;;;;;;;19.90;13.35;;;16.60;92.60;;;;;;5052787;28;20060;-73
2021/08/30 03:20:40;;;;;;;18.58;11.43;;;16.70;92.90;;;;;;5056357;28;20017;-73
2021/08/30 03:23:08;;;;;;;17.45;12.10;;;16.70;92.90;;;;;;5055213;28;20031;-73
2021/08/30 03:25:35;;;;;;;14.88;11.30;;;16.70;92.60;;;;;;5051619;28;20087;-73
2021/08/30 03:28:04;;;;;;;16.63;10.48;;;16.60;92.60;;;;;;5052729;28;20135;-73
2021/08/30 03:30:30;;;;;;;17.60;11.65;;;16.70;92.60;;;;;;5051498;28;20052;-73
2021/08/30 03:32:58;;;;;;;16.42;10.30;;;16.70;92.50;;;;;;5052353;28;20033;-73
2021/08/30 03:35:24;;;;;;;18.35;12.68;;;16.70;92.80;;;;;;5052400;28;20366;-73
2021/08/30 03:37:50;;;;;;;21.02;11.73;;;16.70;92.90;;;;;;5052417;28;20025;-74
2021/08/30 03:40:18;;;;;;;18.13;12.25;;;16.80;92.50;;;;;;5052656;28;20025;-74
2021/08/30 03:42:45;;;;;;;20.10;11.57;;;16.80;92.80;;;;;;5052341;28;20040;-74
2021/08/30 03:45:12;;;;;;;18.90;11.07;;;16.70;92.80;;;;;;5051337;28;20017;-74
2021/08/30 03:47:38;;;;;;;24.10;11.40;;;16.70;92.40;;;;;;5052186;28;20549;-74
2021/08/30 03:50:05;;;;;;;19.42;12.65;;;16.70;92.50;;;;;;5051299;28;20033;-74
2021/08/30 03:52:37;;;;;;;23.08;13.52;;;16.70;92.60;;;;;;5052417;28;20461;-73
2021/08/30 03:55:03;;;;;;;18.92;11.68;;;16.70;92.80;;;;;;5052754;28;20028;-74
2021/08/30 03:57:29;;;;;;;28.42;15.93;;;16.70;93.00;;;;;;5053762;28;20075;-73
2021/08/30 03:59:58;;;;;;;19.88;13.80;;;16.80;93.00;;;;;;5059566;28;20036;-73
2021/08/30 04:02:28;;;;;;;25.20;14.80;;;16.80;93.10;;;;;;5056454;28;20028;-73
2021/08/30 04:04:55;;;;;;;21.38;14.32;;;16.80;92.90;;;;;;5053542;28;20021;-73
2021/08/30 04:07:21;;;;;;;27.42;16.70;;;16.80;92.70;;;;;;5051965;28;20099;-73
2021/08/30 04:09:51;;;;;;;21.27;13.48;;;16.80;93.10;;;;;;5050593;28;20453;-73
2021/08/30 04:12:18;;;;;;;19.08;12.65;;;16.80;93.10;;;;;;5050584;28;20032;-74
2021/08/30 04:14:45;;;;;;;18.00;12.93;;;16.80;92.70;;;;;;5052042;28;20033;-74
2021/08/30 04:17:11;;;;;;;21.60;14.82;;;16.80;93.00;;;;;;5052019;28;20060;-73
2021/08/30 04:19:37;;;;;;;25.98;16.15;;;16.80;93.20;;;;;;5052073;28;20079;-73
2021/08/30 04:22:03;;;;;;;17.75;11.52;;;16.80;93.60;;;;;;5050521;28;20021;-73
2021/08/30 04:24:29;;;;;;;19.85;12.20;;;16.80;92.70;;;;;;5053201;28;20048;-73
2021/08/30 04:26:54;;;;;;;25.52;15.65;;;16.80;92.60;;;;;;5055737;28;20499;-74
2021/08/30 04:29:20;;;;;;;23.73;14.70;;;16.80;93.10;;;;;;5054707;28;20032;-73
2021/08/30 04:31:45;;;;;;;22.83;14.05;;;16.80;93.00;;;;;;5056069;28;20554;-73
2021/08/30 04:34:11;;;;;;;32.45;17.35;;;16.80;93.20;;;;;;5055729;28;20025;-73
2021/08/30 04:36:37;;;;;;;22.52;12.77;;;16.80;93.40;;;;;;5055925;28;20036;-73
2021/08/30 04:39:03;;;;;;;26.52;15.15;;;16.80;93.40;;;;;;5057487;28;20021;-74
2021/08/30 04:41:29;;;;;;;28.45;16.02;;;16.80;93.30;;;;;;5062061;28;20031;-73
2021/08/30 04:43:54;;;;;;;26.25;16.15;;;16.80;93.30;;;;;;5056512;28;20031;-73
2021/08/30 04:46:20;;;;;;;24.17;14.75;;;16.80;93.10;;;;;;5062373;28;20025;-72
2021/08/30 04:48:46;;;;;;;29.77;17.30;;;16.90;93.10;;;;;;5057604;28;20029;-73
2021/08/30 04:51:12;;;;;;;22.35;12.80;;;16.90;93.30;;;;;;5054424;28;20040;-73
2021/08/30 04:53:37;;;;;;;16.67;8.80;;;16.90;93.00;;;;;;5055458;28;20475;-73
2021/08/30 04:56:03;;;;;;;26.40;16.13;;;16.80;91.30;;;;;;5054105;28;20021;-73
2021/08/30 04:58:29;;;;;;;29.23;16.42;;;16.90;92.70;;;;;;5055241;28;20082;-73
2021/08/30 05:00:55;;;;;;;18.98;11.57;;;16.90;92.90;;;;;;5053916;28;20025;-74
2021/08/30 05:03:21;;;;;;;26.65;16.65;;;16.90;92.00;;;;;;5054575;28;20036;-74
2021/08/30 05:05:46;;;;;;;23.77;12.98;;;16.90;92.70;;;;;;5054034;28;20100;-73
2021/08/30 05:08:12;;;;;;;21.00;13.52;;;17.00;92.60;;;;;;5055103;28;20108;-73
2021/08/30 05:10:38;;;;;;;27.80;16.45;;;17.00;92.30;;;;;;5054157;28;20132;-73
2021/08/30 05:13:03;;;;;;;35.20;18.33;;;17.00;92.90;;;;;;5053995;28;20028;-74
2021/08/30 05:15:29;;;;;;;27.20;15.95;;;17.00;92.50;;;;;;5055332;28;20049;-73
2021/08/30 05:17:55;;;;;;;31.35;18.30;;;17.00;91.70;;;;;;5053848;28;20029;-74
2021/08/30 05:20:21;;;;;;;38.05;19.25;;;17.00;92.60;;;;;;5055018;28;20021;-74
2021/08/30 05:22:46;;;;;;;18.20;10.93;;;17.00;92.90;;;;;;5053899;28;20052;-74
2021/08/30 05:25:13;;;;;;;28.20;13.52;;;17.10;92.40;;;;;;5062035;28;20017;-73
2021/08/30 05:27:41;;;;;;;25.50;15.25;;;17.10;92.30;;;;;;5055045;28;20484;-74
2021/08/30 05:30:07;;;;;;;23.33;13.15;;;17.10;92.60;;;;;;5054751;28;20033;-73
2021/08/30 05:32:32;;;;;;;22.23;15.82;;;17.10;92.10;;;;;;5055222;28;20025;-73
2021/08/30 05:34:58;;;;;;;28.10;14.60;;;17.20;92.50;;;;;;5054679;28;20021;-73
2021/08/30 05:37:24;;;;;;;31.10;18.15;;;17.20;91.50;;;;;;5055475;28;20409;-73
2021/08/30 05:39:50;;;;;;;28.42;17.17;;;17.20;92.20;;;;;;5053526;28;20533;-73
2021/08/30 05:42:15;;;;;;;27.90;16.52;;;17.30;92.30;;;;;;5054950;28;20032;-74
2021/08/30 05:44:41;;;;;;;26.90;18.45;;;17.30;92.50;;;;;;5055398;28;20051;-74
2021/08/30 05:47:07;;;;;;;16.80;10.70;;;17.40;93.00;;;;;;5058518;28;20025;-73
2021/08/30 05:49:32;;;;;;;26.45;16.35;;;17.40;92.10;;;;;;5058996;28;20025;-74
2021/08/30 05:51:58;;;;;;;28.85;17.45;;;17.40;92.10;;;;;;5061145;28;20440;-74
2021/08/30 05:54:24;;;;;;;29.15;17.88;;;17.40;92.30;;;;;;5055404;28;20498;-74
2021/08/30 05:56:50;;;;;;;33.42;18.98;;;17.50;91.80;;;;;;5053975;28;20025;-73
2021/08/30 05:59:15;;;;;;;30.17;16.85;;;17.50;91.90;;;;;;5054351;28;20120;-73
2021/08/30 06:01:41;;;;;;;34.53;17.75;;;17.50;92.30;;;;;;5052879;28;20027;-73
2021/08/30 06:04:07;;;;;;;23.83;12.05;;;17.50;92.50;;;;;;5053770;28;20032;-73
2021/08/30 06:06:33;;;;;;;27.65;15.95;;;17.60;91.40;;;;;;5054156;28;20035;-73
2021/08/30 06:08:59;;;;;;;22.30;13.80;;;17.60;91.50;;;;;;5053485;28;20461;-73
2021/08/30 06:11:24;;;;;;;17.30;10.65;;;17.70;91.20;;;;;;5052866;28;20489;-73
2021/08/30 06:13:50;;;;;;;22.63;13.60;;;17.70;90.90;;;;;;5054225;28;20057;-73
2021/08/30 06:16:15;;;;;;;14.82;8.05;;;17.80;89.80;;;;;;5054161;28;20477;-74
2021/08/30 06:18:41;;;;;;;31.40;15.38;;;17.80;87.20;;;;;;5053997;28;20036;-73
2021/08/30 06:21:07;;;;;;;23.33;13.93;;;17.90;88.90;;;;;;5052715;28;20397;-74
2021/08/30 06:23:32;;;;;;;25.88;15.25;;;17.90;90.40;;;;;;5052562;28;20035;-74
2021/08/30 06:25:59;;;;;;;18.55;11.20;;;18.00;91.10;;;;;;5053533;28;20020;-73
2021/08/30 06:28:26;;;;;;;33.28;17.45;;;18.10;91.00;;;;;;5052172;28;20389;-74
2021/08/30 06:30:52;;;;;;;23.70;14.52;;;18.10;91.20;;;;;;5053732;28;20025;-73
2021/08/30 06:33:18;;;;;;;25.15;15.73;;;18.20;91.20;;;;;;5054992;28;20017;-74
2021/08/30 06:35:43;;;;;;;30.38;16.83;;;18.30;91.10;;;;;;5058300;28;20084;-74
2021/08/30 06:38:10;;;;;;;19.17;13.13;;;18.50;90.80;;;;;;5056781;28;20390;-74
2021/08/30 06:40:36;;;;;;;26.67;17.15;;;18.60;90.30;;;;;;5057589;28;20424;-72
2021/08/30 06:43:02;;;;;;;21.13;13.88;;;18.70;89.50;;;;;;5052406;28;20069;-74
2021/08/30 06:45:28;;;;;;;22.90;13.68;;;18.70;90.10;;;;;;5053664;28;20025;-73
2021/08/30 06:47:55;;;;;;;27.33;14.65;;;18.70;90.20;;;;;;5052700;28;20095;-73
2021/08/30 06:50:21;;;;;;;27.33;14.55;;;18.70;90.10;;;;;;5053719;28;20028;-74
2021/08/30 06:52:47;;;;;;;22.90;13.57;;;18.70;90.40;;;;;;5051634;28;20036;-73
2021/08/30 06:55:13;;;;;;;27.23;16.05;;;18.70;90.10;;;;;;5053035;28;20025;-74
2021/08/30 06:57:39;;;;;;;22.27;14.00;;;18.70;90.40;;;;;;5053481;28;20025;-73
2021/08/30 07:00:06;;;;;;;16.30;9.98;;;18.60;90.30;;;;;;5052956;28;20132;-74
2021/08/30 07:02:31;;;;;;;20.80;11.95;;;18.60;90.10;;;;;;5051646;28;20106;-74
2021/08/30 07:04:57;;;;;;;14.85;8.88;;;18.60;87.50;;;;;;5052611;28;20453;-75
2021/08/30 07:07:23;;;;;;;19.23;11.77;;;18.50;87.80;;;;;;5052785;28;20040;-74
2021/08/30 07:09:48;;;;;;;26.02;14.15;;;18.50;89.40;;;;;;5052529;28;20047;-74
2021/08/30 07:12:14;;;;;;;26.02;16.05;;;18.50;88.10;;;;;;5051754;28;20052;-74
2021/08/30 07:14:40;;;;;;;24.33;13.93;;;18.40;88.10;;;;;;5053166;28;20477;-74
2021/08/30 07:17:06;;;;;;;26.52;14.98;;;18.40;87.20;;;;;;5053010;28;20068;-74
2021/08/30 07:19:32;;;;;;;19.33;10.43;;;18.50;89.90;;;;;;5052284;28;20064;-73
2021/08/30 07:21:57;;;;;;;24.95;13.55;;;18.50;88.50;;;;;;5051457;28;20044;-74
2021/08/30 07:24:23;;;;;;;23.23;12.85;;;18.50;89.90;;;;;;5054565;28;20119;-75
2021/08/30 07:26:49;;;;;;;18.77;11.65;;;18.50;90.30;;;;;;5055233;28;20041;-75
2021/08/30 07:29:15;;;;;;;23.10;14.75;;;18.50;88.30;;;;;;5055641;28;20040;-75
2021/08/30 07:31:41;;;;;;;22.10;11.25;;;18.60;89.50;;;;;;5053317;28;20037;-75
2021/08/30 07:34:06;;;;;;;20.00;12.68;;;18.60;88.00;;;;;;5052448;28;20087;-74
2021/08/30 07:36:33;;;;;;;14.05;6.63;;;18.60;86.20;;;;;;5052172;28;20031;-74
2021/08/30 07:39:01;;;;;;;10.52;6.75;;;18.70;84.40;;;;;;5054698;28;20021;-73
2021/08/30 07:41:28;;;;;;;10.75;6.78;;;18.80;83.30;;;;;;5055398;28;20028;-74
2021/08/30 07:43:54;;;;;;;28.70;14.75;;;18.90;83.10;;;;;;5051720;28;20548;-75
2021/08/30 07:46:20;;;;;;;16.58;11.20;;;18.90;85.10;;;;;;5051023;28;20117;-74
2021/08/30 07:48:49;;;;;;;24.73;16.63;;;18.90;85.50;;;;;;5052280;28;20039;-74
2021/08/30 07:51:16;;;;;;;15.45;9.07;;;19.00;87.80;;;;;;5050898;28;20128;-74
2021/08/30 07:53:43;;;;;;;22.70;13.45;;;18.90;85.90;;;;;;5051808;28;20420;-75
2021/08/30 07:56:08;;;;;;;14.95;10.48;;;18.90;86.80;;;;;;5050733;28;20025;-75
2021/08/30 07:58:34;;;;;;;28.20;16.95;;;18.90;87.90;;;;;;5049875;28;20086;-74
2021/08/30 08:01:00;;;;;;;25.63;17.02;;;19.00;86.70;;;;;;5050437;28;20036;-74
2021/08/30 08:03:25;;;;;;;20.60;12.18;;;18.90;88.10;;;;;;5051773;28;20087;-74
2021/08/30 08:05:51;;;;;;;28.95;17.95;;;18.90;86.80;;;;;;5051279;28;20593;-74
2021/08/30 08:08:16;;;;;;;17.23;11.70;;;18.90;88.90;;;;;;5050589;28;20036;-74
2021/08/30 08:10:43;;;;;;;17.45;11.77;;;18.90;87.80;;;;;;5050588;28;20131;-75
2021/08/30 08:13:10;;;;;;;16.25;12.25;;;18.90;89.00;;;;;;5050534;28;20044;-74
2021/08/30 08:15:36;;;;;;;17.63;13.77;;;18.90;87.60;;;;;;5052011;28;20029;-74
2021/08/30 08:18:02;;;;;;;18.33;9.85;;;18.90;86.80;;;;;;5050681;28;20032;-75
2021/08/30 08:20:31;;;;;;;18.63;11.75;;;18.80;86.50;;;;;;5052181;28;20108;-75
2021/08/30 08:22:57;;;;;;;18.25;13.45;;;18.80;87.70;;;;;;5050795;28;20033;-74
2021/08/30 08:25:22;;;;;;;23.20;14.10;;;18.80;88.80;;;;;;5052551;28;20049;-74
2021/08/30 08:27:48;;;;;;;19.17;14.90;;;18.90;89.70;;;;;;5055461;28;20390;-72
2021/08/30 08:30:14;;;;;;;26.98;16.80;;;18.90;89.50;;;;;;5057974;28;20033;-73
2021/08/30 08:32:41;;;;;;;27.73;17.02;;;19.00;89.70;;;;;;5061885;28;20021;-72
2021/08/30 08:35:08;;;;;;;13.20;9.02;;;19.10;87.90;;;;;;5056736;28;20028;-74
2021/08/30 08:37:34;;;;;;;16.35;9.65;;;19.20;83.60;;;;;;5050673;28;20032;-74
2021/08/30 08:39:59;;;;;;;16.90;10.75;;;19.30;82.90;;;;;;5051681;28;20036;-74
2021/08/30 08:42:25;;;;;;;25.63;14.15;;;19.50;83.50;;;;;;5050721;28;20036;-75
2021/08/30 08:44:51;;;;;;;20.52;14.05;;;19.80;82.90;;;;;;5051535;28;20017;-74
2021/08/30 08:47:17;;;;;;;15.90;8.68;;;20.00;83.80;;;;;;5050506;28;20024;-75
2021/08/30 08:49:44;;;;;;;12.95;9.25;;;20.50;79.80;;;;;;5051978;28;20033;-74
2021/08/30 08:52:09;;;;;;;17.65;11.07;;;20.80;79.30;;;;;;5049971;28;20025;-74
2021/08/30 08:54:35;;;;;;;14.80;9.18;;;21.20;79.10;;;;;;5050355;28;20025;-74
2021/08/30 08:57:04;;;;;;;19.77;11.52;;;21.40;79.70;;;;;;5050194;28;20538;-74
2021/08/30 08:59:29;;;;;;;17.38;10.55;;;21.70;78.00;;;;;;5050340;28;20482;-74
2021/08/30 09:01:59;;;;;;;14.77;8.50;;;22.00;77.00;;;;;;5051237;28;20032;-73
2021/08/30 09:04:30;;;;;;;13.93;7.38;;;22.20;75.40;;;;;;5050447;28;20036;-73
2021/08/30 09:07:06;;;;;;;14.27;8.10;;;22.10;74.80;;;;;;5049999;28;20028;-74
2021/08/30 09:09:32;;;;;;;13.07;8.60;;;22.00;75.30;;;;;;5051017;28;20032;-73
2021/08/30 09:11:57;;;;;;;10.23;7.13;;;21.90;75.90;;;;;;5053560;28;20025;-74
2021/08/30 09:14:25;;;;;;;10.40;7.70;;;21.80;76.00;;;;;;5054989;28;20025;-74
2021/08/30 09:17:08;;;;;;;12.75;7.10;;;21.80;76.30;;;;;;5055276;28;20021;-74
2021/08/30 09:19:35;;;;;;;9.77;6.85;;;21.70;76.20;;;;;;5054766;28;20025;-74
2021/08/30 09:22:04;;;;;;;12.57;8.70;;;21.50;77.40;;;;;;5053510;28;20532;-75
2021/08/30 09:24:31;;;;;;;10.93;7.27;;;21.30;77.40;;;;;;5055133;28;20030;-74
2021/08/30 09:27:02;;;;;;;11.40;8.30;;;21.10;78.70;;;;;;5058327;28;20623;-72
2021/08/30 09:29:30;;;;;;;9.82;6.90;;;21.00;78.80;;;;;;5060386;28;20032;-73
2021/08/30 09:32:11;;;;;;;12.75;8.05;;;21.00;79.00;;;;;;5058092;28;20028;-74
2021/08/30 09:34:46;;;;;;;14.27;9.18;;;21.20;78.40;;;;;;5055507;28;20477;-74
2021/08/30 09:37:18;;;;;;;13.13;8.52;;;21.70;77.60;;;;;;5053404;28;20109;-74
2021/08/30 09:39:50;;;;;;;18.30;9.57;;;22.10;76.10;;;;;;5054919;28;20029;-75
2021/08/30 09:42:16;;;;;;;12.10;7.25;;;22.40;74.00;;;;;;5055327;28;20385;-74
2021/08/30 09:44:41;;;;;;;13.30;7.63;;;22.40;74.10;;;;;;5054822;28;20036;-73
2021/08/30 09:47:12;;;;;;;11.13;7.35;;;22.20;75.40;;;;;;5054215;28;20020;-75
2021/08/30 09:49:38;;;;;;;10.68;7.53;;;22.00;76.00;;;;;;5053200;28;20025;-74
2021/08/30 09:52:04;;;;;;;13.27;8.07;;;21.90;76.60;;;;;;5053017;28;20042;-74
2021/08/30 09:54:30;;;;;;;9.23;6.63;;;22.00;75.90;;;;;;5054770;28;20021;-75
2021/08/30 09:56:57;;;;;;;12.93;8.23;;;22.00;76.80;;;;;;5054513;28;20031;-74
2021/08/30 09:59:24;;;;;;;11.65;8.93;;;22.00;76.20;;;;;;5053193;28;20025;-74
2021/08/30 10:01:52;;;;;;;9.45;6.53;;;21.90;75.70;;;;;;5053096;28;20354;-74
2021/08/30 10:04:20;;;;;;;10.85;7.05;;;21.80;76.00;;;;;;5052789;28;20029;-74
2021/08/30 10:06:50;;;;;;;8.98;6.00;;;21.70;77.90;;;;;;5054429;28;20040;-75
2021/08/30 10:09:17;;;;;;;11.05;7.72;;;21.60;77.60;;;;;;5052682;28;20605;-75
2021/08/30 10:11:44;;;;;;;16.58;8.43;;;21.60;76.40;;;;;;5054368;28;20035;-75
2021/08/30 10:14:16;;;;;;;14.63;8.15;;;21.70;76.80;;;;;;5054034;28;20068;-75
2021/08/30 10:16:43;;;;;;;10.43;7.55;;;22.10;75.80;;;;;;5054492;28;20025;-75
2021/08/30 10:19:09;;;;;;;10.00;7.15;;;22.60;74.20;;;;;;5056450;28;20021;-75
2021/08/30 10:21:45;;;;;;;13.40;7.55;;;23.00;72.70;;;;;;5065591;28;20024;-74
2021/08/30 10:24:17;;;;;;;14.90;8.23;;;23.40;72.40;;;;;;5073561;28;20008;-75
2021/08/30 10:26:44;;;;;;;9.02;5.85;;;23.60;70.00;;;;;;5060501;28;20036;-75
2021/08/30 10:29:11;;;;;;;8.80;5.82;;;23.50;71.30;;;;;;5056536;28;20056;-75
2021/08/30 10:31:50;;;;;;;9.95;6.60;;;23.30;73.00;;;;;;5053940;28;20071;-75
2021/08/30 10:34:33;;;;;;;10.13;7.57;;;23.10;71.40;;;;;;5052074;28;20052;-75
2021/08/30 10:37:01;;;;;;;10.95;7.35;;;23.10;71.30;;;;;;5053036;28;20017;-75
2021/08/30 10:39:38;;;;;;;8.07;5.53;;;23.00;70.90;;;;;;5053649;28;20067;-75
2021/08/30 10:42:04;;;;;;;9.48;6.88;;;23.00;73.20;;;;;;5051962;28;20021;-75
2021/08/30 10:44:30;;;;;;;12.07;7.55;;;22.90;73.20;;;;;;5053199;28;20079;-75
2021/08/30 10:46:56;;;;;;;10.88;7.72;;;22.80;73.30;;;;;;5051678;28;20545;-75
2021/08/30 10:49:27;;;;;;;9.98;7.18;;;22.80;72.50;;;;;;5053225;28;20108;-75
2021/08/30 10:52:07;;;;;;;13.02;6.38;;;22.70;73.10;;;;;;5051806;28;20108;-74
2021/08/30 10:54:33;;;;;;;9.95;6.20;;;22.80;72.70;;;;;;5053614;28;20032;-74
2021/08/30 10:57:01;;;;;;;11.10;7.65;;;23.20;73.10;;;;;;5052947;28;20018;-74
2021/08/30 10:59:30;;;;;;;9.15;6.00;;;23.50;70.50;;;;;;5052850;28;20427;-74
2021/08/30 11:02:03;;;;;;;12.00;6.35;;;23.60;72.50;;;;;;5052759;28;20381;-73
2021/08/30 11:04:36;;;;;;;7.22;5.38;;;23.70;70.20;;;;;;5051926;28;20358;-74
2021/08/30 11:07:07;;;;;;;10.27;6.25;;;23.80;69.60;;;;;;5052710;28;20374;-74
2021/08/30 11:09:33;;;;;;;9.10;6.03;;;23.80;69.90;;;;;;5053360;28;20048;-75
2021/08/30 11:12:13;;;;;;;9.85;6.72;;;23.70;71.50;;;;;;5054072;28;20121;-75
2021/08/30 11:14:39;;;;;;;10.18;7.07;;;23.40;71.90;;;;;;5054728;28;20049;-74
2021/08/30 11:17:05;;;;;;;9.60;6.68;;;23.10;70.90;;;;;;5056516;28;20560;-73
2021/08/30 11:19:31;;;;;;;9.73;6.75;;;23.00;71.50;;;;;;5060272;28;20336;-73
2021/08/30 11:21:59;;;;;;;9.88;5.85;;;23.20;74.20;;;;;;5056264;28;20060;-75
2021/08/30 11:24:26;;;;;;;8.55;5.85;;;23.50;70.30;;;;;;5051785;28;20048;-75
2021/08/30 11:26:58;;;;;;;8.13;5.97;;;23.90;71.50;;;;;;5052512;28;20083;-75
2021/08/30 11:29:23;;;;;;;7.40;5.47;;;24.20;71.50;;;;;;5053071;28;20029;-75
2021/08/30 11:31:49;;;;;;;9.75;6.68;;;24.50;71.80;;;;;;5055229;28;20041;-75
2021/08/30 11:34:22;;;;;;;8.85;5.68;;;24.80;66.90;;;;;;5055504;28;20032;-75
2021/08/30 11:36:49;;;;;;;8.65;5.57;;;25.00;67.50;;;;;;5051352;28;20021;-75
2021/08/30 11:39:16;;;;;;;9.10;5.40;;;24.90;68.90;;;;;;5052659;28;20061;-74
2021/08/30 11:41:43;;;;;;;6.10;4.68;;;24.70;67.80;;;;;;5053045;28;20484;-74
2021/08/30 11:44:09;;;;;;;7.82;5.50;;;24.50;68.90;;;;;;5050797;28;20112;-75
2021/08/30 11:46:43;;;;;;;7.00;4.93;;;24.40;68.60;;;;;;5053896;28;20056;-75
2021/08/30 11:49:09;;;;;;;8.13;5.78;;;24.20;70.70;;;;;;5052520;28;20033;-75
2021/08/30 11:51:43;;;;;;;7.05;4.97;;;24.00;68.40;;;;;;5052504;28;20040;-75
2021/08/30 11:54:13;;;;;;;7.75;5.00;;;23.90;69.00;;;;;;5052347;28;20017;-75
2021/08/30 11:56:39;;;;;;;8.55;5.75;;;23.80;69.90;;;;;;5052588;28;20048;-75
2021/08/30 11:59:05;;;;;;;7.75;5.20;;;23.70;71.40;;;;;;5051932;28;20069;-75
2021/08/30 12:01:37;;;;;;;9.38;6.30;;;23.60;67.10;;;;;;5051073;28;20036;-75
2021/08/30 12:04:17;;;;;;;6.88;4.68;;;23.60;67.00;;;;;;5050802;28;20063;-75
2021/08/30 12:06:55;;;;;;;9.40;5.82;;;23.80;66.50;;;;;;5051126;28;20029;-76
2021/08/30 12:09:21;;;;;;;9.13;5.07;;;24.00;67.40;;;;;;5050832;28;20028;-75
2021/08/30 12:11:52;;;;;;;6.88;4.80;;;24.00;68.40;;;;;;5051832;28;20025;-75
2021/08/30 12:14:18;;;;;;;7.93;4.95;;;24.10;70.00;;;;;;5054616;28;20378;-75
2021/08/30 12:16:46;;;;;;;7.75;4.80;;;24.20;66.60;;;;;;5054454;28;20484;-75
2021/08/30 12:19:12;;;;;;;10.82;6.05;;;24.10;70.00;;;;;;5061817;28;20076;-74
2021/08/30 12:21:40;;;;;;;7.43;5.55;;;24.10;69.10;;;;;;5065621;28;20111;-75
2021/08/30 12:24:07;;;;;;;9.18;5.75;;;24.30;68.80;;;;;;5051090;28;20373;-75
2021/08/30 12:26:40;;;;;;;7.25;5.18;;;24.80;64.70;;;;;;5052139;28;20025;-76
2021/08/30 12:29:05;;;;;;;10.20;5.90;;;25.10;67.00;;;;;;5050598;28;20024;-75
2021/08/30 12:31:34;;;;;;;8.10;5.15;;;25.50;67.20;;;;;;5052146;28;20029;-74
2021/08/30 12:34:10;;;;;;;9.13;5.20;;;25.70;58.90;;;;;;5050494;28;20029;-75
2021/08/30 12:36:36;;;;;;;7.57;5.07;;;25.80;62.70;;;;;;5050732;28;20031;-75
2021/08/30 12:39:03;;;;;;;8.15;4.40;;;25.80;60.40;;;;;;5051781;28;20025;-76